createdAt,value
2022-10-11T00:00:09.489Z,98668.06
2022-10-11T00:01:12.246Z,98668.34
2022-10-11T00:02:15.207Z,98663.66
2022-10-11T00:03:18.176Z,98662.09
2022-10-11T00:04:21.176Z,98664.44
2022-10-11T00:05:24.588Z,98662.97
2022-10-11T00:06:27.730Z,98657.56
2022-10-11T00:07:30.405Z,98660.37
2022-10-11T00:08:33.649Z,98661.50
2022-10-11T00:09:36.358Z,98654.59
2022-10-11T00:10:39.799Z,98660.56
2022-10-11T00:11:42.592Z,98660.91
2022-10-11T00:12:45.508Z,98661.72
2022-10-11T00:13:48.471Z,98659.47
2022-10-11T00:14:51.167Z,98651.41
2022-10-11T00:15:54.024Z,98657.16
2022-10-11T00:16:56.640Z,98651.03
2022-10-11T00:18:04.528Z,98659.69
2022-10-11T00:19:08.010Z,98658.06
2022-10-11T00:20:12.243Z,98656.00
2022-10-11T00:21:16.756Z,98659.81
2022-10-11T00:22:19.594Z,98653.38
2022-10-11T00:23:22.427Z,98656.00
2022-10-11T00:24:25.098Z,98654.84
2022-10-11T00:25:27.720Z,98650.75
2022-10-11T00:26:31.868Z,98652.50
2022-10-11T00:27:35.874Z,98646.75
2022-10-11T00:28:38.994Z,98651.91
2022-10-11T00:29:41.648Z,98653.00
2022-10-11T00:30:44.347Z,98654.56
2022-10-11T00:31:47.025Z,98658.34
2022-10-11T00:32:50.667Z,98661.53
2022-10-11T00:33:57.897Z,98657.56
2022-10-11T00:35:04.992Z,98656.50
2022-10-11T00:36:08.973Z,98661.31
2022-10-11T00:37:11.860Z,98656.47
2022-10-11T00:38:14.917Z,98658.31
2022-10-11T00:39:18.471Z,98660.75
2022-10-11T00:40:21.458Z,98658.72
2022-10-11T00:41:24.312Z,98657.72
2022-10-11T00:42:27.174Z,98657.44
2022-10-11T00:43:32.349Z,98647.25
2022-10-11T00:44:38.964Z,98653.75
2022-10-11T00:45:56.950Z,98649.50
2022-10-11T00:47:06.543Z,98653.38
2022-10-11T00:48:20.385Z,98643.25
2022-10-11T00:49:41.109Z,98642.19
2022-10-11T00:50:44.031Z,98638.41
2022-10-11T00:51:57.544Z,98637.03
2022-10-11T00:53:03.522Z,98651.69
2022-10-11T00:54:08.114Z,98643.72
2022-10-11T00:55:14.676Z,98645.28
2022-10-11T00:56:28.157Z,98646.44
2022-10-11T00:57:34.130Z,98648.97
2022-10-11T00:58:39.004Z,98651.22
2022-10-11T00:59:46.910Z,98650.03
2022-10-11T01:00:51.096Z,98648.31
2022-10-11T01:01:53.803Z,98642.47
2022-10-11T01:02:57.048Z,98644.72
2022-10-11T01:03:59.837Z,98645.75
2022-10-11T01:05:27.645Z,98647.34
2022-10-11T01:06:26.004Z,98647.72
2022-10-11T01:07:31.564Z,98640.62
2022-10-11T01:08:34.950Z,98644.50
2022-10-11T01:09:37.473Z,98644.78
2022-10-11T01:10:41.952Z,98648.97
2022-10-11T01:11:47.980Z,98642.34
2022-10-11T01:13:08.493Z,98641.31
2022-10-11T01:14:23.694Z,98648.50
2022-10-11T01:15:46.241Z,98644.13
2022-10-11T01:17:13.474Z,98647.25
2022-10-11T01:18:30.833Z,98636.25
2022-10-11T01:19:45.764Z,98637.56
2022-10-11T01:20:53.842Z,98641.28
2022-10-11T01:22:18.282Z,98634.63
2022-10-11T01:23:35.987Z,98640.84
2022-10-11T01:25:16.870Z,98635.38
2022-10-11T01:26:37.822Z,98633.78
2022-10-11T01:28:00.570Z,98635.03
2022-10-11T01:29:31.572Z,98631.28
2022-10-11T01:30:35.552Z,98640.34
2022-10-11T01:31:51.870Z,98635.09
2022-10-11T01:33:09.470Z,98632.13
2022-10-11T01:34:14.741Z,98632.97
2022-10-11T01:35:47.321Z,98631.66
2022-10-11T01:37:05.517Z,98632.16
2022-10-11T01:38:21.851Z,98628.53
2022-10-11T01:39:39.068Z,98630.78
2022-10-11T01:40:53.103Z,98627.25
2022-10-11T01:42:00.351Z,98623.28
2022-10-11T01:43:06.472Z,98625.44
2022-10-11T01:44:11.437Z,98622.97
2022-10-11T01:45:18.928Z,98623.47
2022-10-11T01:46:21.982Z,98618.59
2022-10-11T01:47:29.824Z,98624.50
2022-10-11T01:48:32.578Z,98616.78
2022-10-11T01:49:35.390Z,98619.75
2022-10-11T01:50:53.161Z,98622.81
2022-10-11T01:52:00.094Z,98617.06
2022-10-11T01:53:16.999Z,98620.19
2022-10-11T01:55:08.793Z,98622.37
2022-10-11T01:56:30.241Z,98622.19
2022-10-11T01:58:07.750Z,98618.69
2022-10-11T01:59:23.851Z,98614.87
2022-10-11T02:00:34.635Z,98619.00
2022-10-11T02:01:49.409Z,98617.94
2022-10-11T02:03:06.700Z,98615.81
2022-10-11T02:04:22.003Z,98618.50
2022-10-11T02:05:51.084Z,98622.91
2022-10-11T02:07:16.567Z,98617.81
2022-10-11T02:08:30.411Z,98617.81
2022-10-11T02:10:01.844Z,98622.13
2022-10-11T02:11:11.773Z,98612.19
2022-10-11T02:12:21.305Z,98613.47
2022-10-11T02:13:39.810Z,98613.06
2022-10-11T02:14:47.279Z,98620.22
2022-10-11T02:15:51.610Z,98608.38
2022-10-11T02:17:08.092Z,98614.41
2022-10-11T02:18:16.949Z,98611.28
2022-10-11T02:19:25.020Z,98622.19
2022-10-11T02:20:31.539Z,98615.88
2022-10-11T02:21:37.664Z,98611.44
2022-10-11T02:22:45.843Z,98616.66
2022-10-11T02:24:00.629Z,98617.81
2022-10-11T02:25:09.542Z,98617.88
2022-10-11T02:26:14.692Z,98628.72
2022-10-11T02:27:23.380Z,98618.56
2022-10-11T02:28:31.033Z,98621.13
2022-10-11T02:29:38.236Z,98624.94
2022-10-11T02:30:43.980Z,98622.19
2022-10-11T02:31:48.561Z,98625.88
2022-10-11T02:32:52.946Z,98625.53
2022-10-11T02:34:06.342Z,98627.38
2022-10-11T02:35:10.225Z,98622.28
2022-10-11T02:36:30.411Z,98627.50
2022-10-11T02:37:55.584Z,98621.81
2022-10-11T02:39:04.368Z,98625.66
2022-10-11T02:40:14.353Z,98618.56
2022-10-11T02:41:32.567Z,98623.75
2022-10-11T02:42:44.647Z,98620.84
2022-10-11T02:44:00.482Z,98629.22
2022-10-11T02:45:10.449Z,98629.50
2022-10-11T02:46:16.613Z,98628.78
2022-10-11T02:47:20.529Z,98624.81
2022-10-11T02:48:25.288Z,98624.59
2022-10-11T02:49:30.007Z,98624.59
2022-10-11T02:50:32.659Z,98626.81
2022-10-11T02:51:36.367Z,98632.88
2022-10-11T02:52:39.011Z,98628.56
2022-10-11T02:53:41.655Z,98637.34
2022-10-11T02:54:44.247Z,98630.97
2022-10-11T02:55:48.848Z,98631.47
2022-10-11T02:56:51.599Z,98634.03
2022-10-11T02:57:54.409Z,98630.59
2022-10-11T02:58:57.095Z,98626.38
2022-10-11T03:00:00.196Z,98634.31
2022-10-11T03:01:02.807Z,98621.81
2022-10-11T03:02:05.373Z,98629.84
2022-10-11T03:03:08.061Z,98627.16
2022-10-11T03:04:10.766Z,98616.97
2022-10-11T03:05:13.410Z,98623.41
2022-10-11T03:06:16.091Z,98627.88
2022-10-11T03:07:18.747Z,98627.94
2022-10-11T03:08:21.506Z,98618.88
2022-10-11T03:09:24.076Z,98628.56
2022-10-11T03:10:26.754Z,98626.59
2022-10-11T03:11:29.315Z,98623.41
2022-10-11T03:12:32.033Z,98628.44
2022-10-11T03:13:34.706Z,98622.75
2022-10-11T03:14:37.578Z,98619.16
2022-10-11T03:15:40.213Z,98624.03
2022-10-11T03:16:42.788Z,98626.81
2022-10-11T03:17:45.457Z,98628.41
2022-10-11T03:18:48.131Z,98616.06
2022-10-11T03:19:50.759Z,98621.25
2022-10-11T03:20:53.332Z,98626.00
2022-10-11T03:21:55.971Z,98627.97
2022-10-11T03:22:58.673Z,98616.16
2022-10-11T03:24:01.474Z,98621.69
2022-10-11T03:25:04.973Z,98619.56
2022-10-11T03:26:08.332Z,98623.53
2022-10-11T03:27:15.002Z,98628.41
2022-10-11T03:28:17.763Z,98627.78
2022-10-11T03:29:20.557Z,98633.69
2022-10-11T03:30:23.209Z,98628.84
2022-10-11T03:31:26.001Z,98636.84
2022-10-11T03:32:29.773Z,98640.69
2022-10-11T03:33:32.464Z,98637.19
2022-10-11T03:34:35.122Z,98640.94
2022-10-11T03:35:40.912Z,98644.63
2022-10-11T03:36:43.484Z,98642.53
2022-10-11T03:37:46.197Z,98642.66
2022-10-11T03:38:48.797Z,98645.78
2022-10-11T03:39:51.491Z,98643.59
2022-10-11T03:40:54.150Z,98637.09
2022-10-11T03:41:56.691Z,98651.31
2022-10-11T03:42:59.326Z,98649.53
2022-10-11T03:44:01.947Z,98648.53
2022-10-11T03:45:08.357Z,98652.34
2022-10-11T03:46:11.108Z,98649.53
2022-10-11T03:47:13.671Z,98643.47
2022-10-11T03:48:16.336Z,98647.84
2022-10-11T03:49:18.977Z,98636.31
2022-10-11T03:50:27.871Z,98645.00
2022-10-11T03:51:31.439Z,98654.41
2022-10-11T03:52:34.703Z,98654.88
2022-10-11T03:53:37.388Z,98656.69
2022-10-11T03:54:40.038Z,98651.16
2022-10-11T03:55:42.798Z,98651.78
2022-10-11T03:56:45.738Z,98650.81
2022-10-11T03:57:51.314Z,98649.63
2022-10-11T03:58:53.978Z,98657.19
2022-10-11T03:59:56.690Z,98657.41
2022-10-11T04:01:00.009Z,98649.88
2022-10-11T04:02:02.899Z,98661.03
2022-10-11T04:03:05.493Z,98651.53
2022-10-11T04:04:08.128Z,98659.03
2022-10-11T04:05:12.732Z,98661.25
2022-10-11T04:06:15.500Z,98658.13
2022-10-11T04:07:18.104Z,98658.97
2022-10-11T04:08:21.365Z,98662.09
2022-10-11T04:09:27.939Z,98658.34
2022-10-11T04:10:31.667Z,98661.31
2022-10-11T04:11:34.399Z,98657.25
2022-10-11T04:12:38.690Z,98652.37
2022-10-11T04:13:41.352Z,98654.72
2022-10-11T04:14:43.909Z,98646.19
2022-10-11T04:15:47.458Z,98655.16
2022-10-11T04:16:50.227Z,98652.53
2022-10-11T04:17:53.005Z,98649.41
2022-10-11T04:18:55.930Z,98650.84
2022-10-11T04:19:58.515Z,98649.25
2022-10-11T04:21:01.142Z,98650.94
2022-10-11T04:22:04.925Z,98656.19
2022-10-11T04:23:07.587Z,98651.00
2022-10-11T04:24:11.639Z,98657.84
2022-10-11T04:25:14.375Z,98658.66
2022-10-11T04:26:16.953Z,98651.84
2022-10-11T04:27:19.616Z,98653.13
2022-10-11T04:28:22.281Z,98654.53
2022-10-11T04:29:30.070Z,98649.91
2022-10-11T04:30:35.361Z,98657.88
2022-10-11T04:31:37.984Z,98652.28
2022-10-11T04:32:40.585Z,98657.66
2022-10-11T04:33:43.609Z,98644.47
2022-10-11T04:34:46.231Z,98647.03
2022-10-11T04:35:49.038Z,98649.22
2022-10-11T04:36:51.677Z,98644.59
2022-10-11T04:37:54.311Z,98649.34
2022-10-11T04:38:56.970Z,98650.50
2022-10-11T04:39:59.714Z,98637.09
2022-10-11T04:41:13.922Z,98645.63
2022-10-11T04:42:16.726Z,98650.13
2022-10-11T04:43:19.552Z,98649.28
2022-10-11T04:44:22.069Z,98643.31
2022-10-11T04:45:24.746Z,98640.91
2022-10-11T04:46:28.135Z,98647.38
2022-10-11T04:47:30.811Z,98640.53
2022-10-11T04:48:33.903Z,98646.91
2022-10-11T04:49:36.721Z,98640.12
2022-10-11T04:50:39.254Z,98644.59
2022-10-11T04:51:41.765Z,98648.53
2022-10-11T04:52:44.343Z,98648.62
2022-10-11T04:53:48.346Z,98648.19
2022-10-11T04:54:50.903Z,98653.81
2022-10-11T04:56:02.635Z,98651.87
2022-10-11T04:57:05.753Z,98645.50
2022-10-11T04:58:08.416Z,98665.19
2022-10-11T04:59:11.237Z,98646.28
2022-10-11T05:00:15.330Z,98648.34
2022-10-11T05:01:17.946Z,98648.12
2022-10-11T05:02:20.560Z,98645.22
2022-10-11T05:03:23.816Z,98655.00
2022-10-11T05:04:26.423Z,98645.78
2022-10-11T05:05:29.055Z,98649.69
2022-10-11T05:06:31.794Z,98644.16
2022-10-11T05:07:34.273Z,98658.03
2022-10-11T05:08:37.017Z,98654.72
2022-10-11T05:09:39.675Z,98654.06
2022-10-11T05:10:42.364Z,98653.88
2022-10-11T05:11:44.904Z,98653.09
2022-10-11T05:12:47.638Z,98658.13
2022-10-11T05:13:50.441Z,98652.72
2022-10-11T05:14:53.081Z,98657.41
2022-10-11T05:15:56.052Z,98658.03
2022-10-11T05:16:58.793Z,98654.06
2022-10-11T05:18:01.791Z,98665.13
2022-10-11T05:19:04.418Z,98664.44
2022-10-11T05:20:07.762Z,98658.31
2022-10-11T05:21:20.807Z,98665.63
2022-10-11T05:22:23.473Z,98675.78
2022-10-11T05:23:26.178Z,98662.50
2022-10-11T05:24:28.729Z,98669.34
2022-10-11T05:25:31.630Z,98665.47
2022-10-11T05:26:34.536Z,98658.87
2022-10-11T05:27:37.279Z,98666.56
2022-10-11T05:28:41.975Z,98665.59
2022-10-11T05:29:44.558Z,98673.66
2022-10-11T05:30:47.083Z,98660.47
2022-10-11T05:31:49.707Z,98672.91
2022-10-11T05:32:52.385Z,98673.16
2022-10-11T05:33:55.283Z,98672.56
2022-10-11T05:34:57.891Z,98677.53
2022-10-11T05:36:00.881Z,98676.75
2022-10-11T05:37:04.513Z,98677.03
2022-10-11T05:38:07.373Z,98676.53
2022-10-11T05:39:09.912Z,98677.53
2022-10-11T05:40:13.130Z,98672.84
2022-10-11T05:41:16.200Z,98677.66
2022-10-11T05:42:18.904Z,98684.91
2022-10-11T05:43:21.576Z,98683.19
2022-10-11T05:44:24.189Z,98682.09
2022-10-11T05:45:26.970Z,98683.19
2022-10-11T05:46:29.626Z,98689.78
2022-10-11T05:47:32.910Z,98683.94
2022-10-11T05:48:35.583Z,98695.03
2022-10-11T05:49:38.387Z,98691.72
2022-10-11T05:50:41.030Z,98695.91
2022-10-11T05:51:43.717Z,98684.25
2022-10-11T05:52:46.297Z,98695.53
2022-10-11T05:53:49.442Z,98698.09
2022-10-11T05:54:52.065Z,98695.06
2022-10-11T05:55:55.055Z,98699.25
2022-10-11T05:56:57.710Z,98696.75
2022-10-11T05:58:00.280Z,98696.94
2022-10-11T05:59:04.499Z,98696.53
2022-10-11T06:00:07.848Z,98705.41
2022-10-11T06:01:23.752Z,98700.16
2022-10-11T06:02:27.801Z,98711.59
2022-10-11T06:03:30.796Z,98710.53
2022-10-11T06:04:37.230Z,98701.91
2022-10-11T06:05:40.222Z,98711.72
2022-10-11T06:06:42.835Z,98705.41
2022-10-11T06:07:45.423Z,98699.00
2022-10-11T06:08:48.499Z,98711.94
2022-10-11T06:09:51.737Z,98707.06
2022-10-11T06:10:54.440Z,98707.75
2022-10-11T06:11:57.637Z,98706.63
2022-10-11T06:13:00.789Z,98706.66
2022-10-11T06:14:03.363Z,98707.16
2022-10-11T06:15:06.779Z,98708.91
2022-10-11T06:16:10.283Z,98719.50
2022-10-11T06:17:13.547Z,98715.50
2022-10-11T06:18:16.358Z,98723.00
2022-10-11T06:19:19.297Z,98716.41
2022-10-11T06:20:22.068Z,98719.87
2022-10-11T06:21:25.227Z,98713.09
2022-10-11T06:22:27.730Z,98717.47
2022-10-11T06:23:30.473Z,98719.16
2022-10-11T06:24:33.155Z,98721.59
2022-10-11T06:25:35.943Z,98720.66
2022-10-11T06:26:38.826Z,98720.75
2022-10-11T06:27:41.540Z,98724.44
2022-10-11T06:28:44.613Z,98732.16
2022-10-11T06:29:47.367Z,98723.75
2022-10-11T06:30:49.994Z,98724.94
2022-10-11T06:31:52.630Z,98723.16
2022-10-11T06:32:55.301Z,98727.66
2022-10-11T06:33:59.522Z,98722.63
2022-10-11T06:35:03.619Z,98726.19
2022-10-11T06:36:14.287Z,98725.53
2022-10-11T06:37:16.759Z,98729.31
2022-10-11T06:38:19.819Z,98732.03
2022-10-11T06:39:22.426Z,98732.62
2022-10-11T06:40:25.238Z,98730.78
2022-10-11T06:41:30.366Z,98728.63
2022-10-11T06:42:33.093Z,98728.31
2022-10-11T06:43:35.960Z,98734.38
2022-10-11T06:44:39.518Z,98733.97
2022-10-11T06:45:42.377Z,98728.78
2022-10-11T06:46:48.979Z,98726.75
2022-10-11T06:47:51.590Z,98727.50
2022-10-11T06:48:56.584Z,98731.50
2022-10-11T06:49:59.450Z,98724.66
2022-10-11T06:51:02.167Z,98727.16
2022-10-11T06:52:05.223Z,98731.31
2022-10-11T06:53:08.245Z,98732.41
2022-10-11T06:54:14.184Z,98732.66
2022-10-11T06:55:17.028Z,98739.44
2022-10-11T06:56:20.027Z,98738.81
2022-10-11T06:57:22.946Z,98735.41
2022-10-11T06:58:25.636Z,98734.06
2022-10-11T06:59:28.356Z,98732.06
2022-10-11T07:00:31.173Z,98737.78
2022-10-11T07:01:33.889Z,98737.88
2022-10-11T07:02:36.550Z,98744.88
2022-10-11T07:03:40.079Z,98739.44
2022-10-11T07:04:42.692Z,98738.78
2022-10-11T07:05:46.126Z,98742.34
2022-10-11T07:06:48.821Z,98744.37
2022-10-11T07:07:51.647Z,98745.97
2022-10-11T07:08:54.751Z,98747.06
2022-10-11T07:09:57.413Z,98743.91
2022-10-11T07:11:02.121Z,98752.00
2022-10-11T07:12:04.938Z,98741.16
2022-10-11T07:13:07.613Z,98746.19
2022-10-11T07:14:10.591Z,98747.75
2022-10-11T07:15:13.399Z,98749.09
2022-10-11T07:16:16.288Z,98743.44
2022-10-11T07:17:22.138Z,98752.34
2022-10-11T07:18:25.204Z,98753.88
2022-10-11T07:19:28.130Z,98750.97
2022-10-11T07:20:30.680Z,98755.19
2022-10-11T07:21:34.625Z,98748.38
2022-10-11T07:22:38.696Z,98750.03
2022-10-11T07:23:42.325Z,98749.03
2022-10-11T07:24:44.939Z,98752.34
2022-10-11T07:25:48.234Z,98747.88
2022-10-11T07:26:51.188Z,98749.34
2022-10-11T07:27:53.935Z,98749.97
2022-10-11T07:28:58.264Z,98747.06
2022-10-11T07:30:01.017Z,98748.56
2022-10-11T07:31:10.134Z,98756.94
2022-10-11T07:32:12.852Z,98750.75
2022-10-11T07:33:15.694Z,98752.66
2022-10-11T07:34:20.420Z,98754.97
2022-10-11T07:35:23.018Z,98755.31
2022-10-11T07:36:25.847Z,98749.53
2022-10-11T07:37:28.491Z,98755.16
2022-10-11T07:38:34.730Z,98757.69
2022-10-11T07:39:39.315Z,98756.00
2022-10-11T07:40:44.297Z,98760.50
2022-10-11T07:41:46.978Z,98753.69
2022-10-11T07:42:49.547Z,98756.81
2022-10-11T07:43:52.330Z,98758.81
2022-10-11T07:44:55.011Z,98761.50
2022-10-11T07:46:00.730Z,98763.50
2022-10-11T07:47:05.750Z,98759.31
2022-10-11T07:48:12.309Z,98759.94
2022-10-11T07:49:15.017Z,98761.81
2022-10-11T07:50:17.789Z,98758.06
2022-10-11T07:51:22.895Z,98761.97
2022-10-11T07:52:25.566Z,98760.06
2022-10-11T07:53:28.283Z,98758.84
2022-10-11T07:54:31.027Z,98752.75
2022-10-11T07:55:40.518Z,98758.84
2022-10-11T07:56:43.333Z,98762.59
2022-10-11T07:57:46.068Z,98761.19
2022-10-11T07:58:54.896Z,98770.03
2022-10-11T07:59:57.475Z,98767.88
2022-10-11T08:01:00.285Z,98762.53
2022-10-11T08:02:03.071Z,98770.31
2022-10-11T08:03:06.942Z,98760.09
2022-10-11T08:04:10.460Z,98767.53
2022-10-11T08:05:13.319Z,98761.16
2022-10-11T08:06:20.065Z,98765.53
2022-10-11T08:07:22.731Z,98767.53
2022-10-11T08:08:25.450Z,98767.06
2022-10-11T08:09:28.212Z,98773.25
2022-10-11T08:10:31.018Z,98768.59
2022-10-11T08:11:37.182Z,98754.62
2022-10-11T08:12:39.967Z,98762.56
2022-10-11T08:13:42.507Z,98759.37
2022-10-11T08:14:45.137Z,98765.06
2022-10-11T08:15:47.630Z,98760.75
2022-10-11T08:16:54.062Z,98767.06
2022-10-11T08:17:56.609Z,98766.59
2022-10-11T08:18:59.243Z,98767.50
2022-10-11T08:20:01.928Z,98763.47
2022-10-11T08:21:09.207Z,98765.09
2022-10-11T08:22:11.854Z,98768.38
2022-10-11T08:23:16.989Z,98761.13
2022-10-11T08:24:21.107Z,98769.59
2022-10-11T08:25:23.723Z,98754.06
2022-10-11T08:26:26.336Z,98772.19
2022-10-11T08:27:28.892Z,98770.09
2022-10-11T08:28:32.685Z,98769.78
2022-10-11T08:29:35.362Z,98774.28
2022-10-11T08:30:38.014Z,98769.09
2022-10-11T08:31:40.802Z,98764.91
2022-10-11T08:32:43.509Z,98772.59
2022-10-11T08:33:46.545Z,98774.87
2022-10-11T08:34:49.572Z,98768.47
2022-10-11T08:35:53.507Z,98771.09
2022-10-11T08:36:56.020Z,98770.22
2022-10-11T08:37:58.669Z,98772.25
2022-10-11T08:39:01.277Z,98772.28
2022-10-11T08:40:08.762Z,98759.09
2022-10-11T08:41:31.613Z,98765.66
2022-10-11T08:42:48.066Z,98772.97
2022-10-11T08:44:41.427Z,98768.06
2022-10-11T08:45:56.831Z,98768.22
2022-10-11T08:47:09.850Z,98763.84
2022-10-11T08:48:30.339Z,98772.00
2022-10-11T08:49:35.762Z,98764.91
2022-10-11T08:50:38.908Z,98766.34
2022-10-11T08:52:02.823Z,98770.91
2022-10-11T08:53:16.412Z,98761.34
2022-10-11T08:54:43.371Z,98765.00
2022-10-11T08:55:54.600Z,98764.78
2022-10-11T08:56:57.390Z,98762.72
2022-10-11T08:58:01.156Z,98759.69
2022-10-11T08:59:12.413Z,98768.44
2022-10-11T09:00:17.497Z,98766.59
2022-10-11T09:01:26.528Z,98769.75
2022-10-11T09:03:03.047Z,98769.06
2022-10-11T09:04:03.781Z,98769.09
2022-10-11T09:05:10.733Z,98767.94
2022-10-11T09:06:24.580Z,98766.97
2022-10-11T09:07:38.528Z,98770.09
2022-10-11T09:09:02.734Z,98757.72
2022-10-11T09:10:26.519Z,98761.66
2022-10-11T09:11:55.589Z,98765.53
2022-10-11T09:13:12.049Z,98767.25
2022-10-11T09:14:40.895Z,98766.97
2022-10-11T09:15:55.663Z,98766.31
2022-10-11T09:17:13.840Z,98764.22
2022-10-11T09:18:41.359Z,98768.44
2022-10-11T09:19:56.200Z,98775.75
2022-10-11T09:21:28.561Z,98773.97
2022-10-11T09:22:58.260Z,98776.97
2022-10-11T09:24:13.180Z,98775.47
2022-10-11T09:25:47.085Z,98778.38
2022-10-11T09:26:59.731Z,98780.06
2022-10-11T09:28:31.186Z,98783.25
2022-10-11T09:30:02.601Z,98780.13
2022-10-11T09:31:10.265Z,98785.78
2022-10-11T09:32:16.832Z,98790.38
2022-10-11T09:33:48.128Z,98783.63
2022-10-11T09:35:01.023Z,98789.06
2022-10-11T09:36:31.698Z,98778.91
2022-10-11T09:37:42.688Z,98780.84
2022-10-11T09:38:52.564Z,98782.78
2022-10-11T09:40:25.733Z,98787.19
2022-10-11T09:41:48.944Z,98786.12
2022-10-11T09:42:51.539Z,98778.09
2022-10-11T09:43:54.452Z,98791.97
2022-10-11T09:44:57.677Z,98787.22
2022-10-11T09:46:00.286Z,98787.25
2022-10-11T09:47:04.420Z,98788.59
2022-10-11T09:48:07.849Z,98785.44
2022-10-11T09:49:14.756Z,98795.59
2022-10-11T09:50:23.541Z,98793.69
2022-10-11T09:51:28.390Z,98791.59
2022-10-11T09:52:31.219Z,98785.66
2022-10-11T09:53:59.462Z,98789.63
2022-10-11T09:55:03.096Z,98797.88
2022-10-11T09:56:06.457Z,98793.03
2022-10-11T09:57:39.751Z,98786.09
2022-10-11T09:58:42.688Z,98788.53
2022-10-11T10:00:02.939Z,98787.47
2022-10-11T10:01:10.202Z,98779.81
2022-10-11T10:02:12.897Z,98787.22
2022-10-11T10:03:46.399Z,98788.63
2022-10-11T10:04:59.982Z,98787.25
2022-10-11T10:06:24.113Z,98782.41
2022-10-11T10:07:27.750Z,98785.06
2022-10-11T10:08:31.151Z,98786.72
2022-10-11T10:09:33.650Z,98787.75
2022-10-11T10:10:41.313Z,98791.47
2022-10-11T10:11:44.082Z,98775.97
2022-10-11T10:12:55.050Z,98787.53
2022-10-11T10:13:57.729Z,98787.75
2022-10-11T10:15:23.104Z,98780.44
2022-10-11T10:16:30.058Z,98782.47
2022-10-11T10:17:33.381Z,98779.81
2022-10-11T10:18:42.528Z,98780.59
2022-10-11T10:19:56.310Z,98781.66
2022-10-11T10:21:00.087Z,98778.47
2022-10-11T10:22:02.669Z,98777.22
2022-10-11T10:23:28.066Z,98779.25
2022-10-11T10:24:33.256Z,98780.03
2022-10-11T10:25:43.279Z,98780.31
2022-10-11T10:27:08.381Z,98775.13
2022-10-11T10:28:26.438Z,98773.44
2022-10-11T10:29:29.246Z,98771.72
2022-10-11T10:30:35.561Z,98778.03
2022-10-11T10:32:12.859Z,98773.50
2022-10-11T10:33:12.471Z,98781.41
2022-10-11T10:34:20.249Z,98780.44
2022-10-11T10:35:25.578Z,98776.53
2022-10-11T10:36:36.806Z,98775.19
2022-10-11T10:37:48.651Z,98779.66
2022-10-11T10:39:02.806Z,98783.78
2022-10-11T10:40:21.068Z,98783.69
2022-10-11T10:41:23.833Z,98780.13
2022-10-11T10:42:26.623Z,98785.84
2022-10-11T10:43:36.145Z,98778.34
2022-10-11T10:44:38.808Z,98788.78
2022-10-11T10:45:51.802Z,98786.97
2022-10-11T10:47:24.392Z,98781.00
2022-10-11T10:49:01.671Z,98788.94
2022-10-11T10:50:07.080Z,98784.62
2022-10-11T10:51:34.300Z,98788.34
2022-10-11T10:52:45.770Z,98784.62
2022-10-11T10:54:04.952Z,98779.41
2022-10-11T10:55:22.555Z,98773.44
2022-10-11T10:56:39.818Z,98780.97
2022-10-11T10:58:00.918Z,98778.34
2022-10-11T10:59:13.539Z,98780.87
2022-10-11T11:00:20.149Z,98773.50
2022-10-11T11:01:31.365Z,98781.25
2022-10-11T11:02:44.976Z,98770.69
2022-10-11T11:04:21.854Z,98774.47
2022-10-11T11:05:40.900Z,98770.88
2022-10-11T11:06:58.049Z,98771.63
2022-10-11T11:08:00.725Z,98777.25
2022-10-11T11:09:15.700Z,98769.72
2022-10-11T11:10:23.116Z,98773.09
2022-10-11T11:11:54.726Z,98773.47
2022-10-11T11:13:36.010Z,98774.28
2022-10-11T11:15:02.019Z,98782.16
2022-10-11T11:16:44.883Z,98770.34
2022-10-11T11:17:55.883Z,98775.81
2022-10-11T11:19:17.231Z,98771.38
2022-10-11T11:20:22.703Z,98777.06
2022-10-11T11:21:41.772Z,98774.47
2022-10-11T11:23:14.267Z,98783.16
2022-10-11T11:24:34.640Z,98774.66
2022-10-11T11:26:09.097Z,98773.06
2022-10-11T11:27:43.357Z,98773.13
2022-10-11T11:29:27.776Z,98770.81
2022-10-11T11:30:55.718Z,98776.22
2022-10-11T11:32:11.220Z,98774.09
2022-10-11T11:33:49.028Z,98771.56
2022-10-11T11:35:01.602Z,98767.50
2022-10-11T11:36:13.416Z,98767.78
2022-10-11T11:37:25.844Z,98760.91
2022-10-11T11:38:48.946Z,98762.56
2022-10-11T11:39:57.779Z,98763.03
2022-10-11T11:41:05.459Z,98764.31
2022-10-11T11:42:16.406Z,98765.56
2022-10-11T11:43:34.243Z,98765.69
2022-10-11T11:44:48.300Z,98766.50
2022-10-11T11:45:56.740Z,98756.16
2022-10-11T11:47:19.227Z,98760.28
2022-10-11T11:48:27.328Z,98769.78
2022-10-11T11:49:41.515Z,98759.59
2022-10-11T11:50:51.331Z,98763.84
2022-10-11T11:51:55.074Z,98760.19
2022-10-11T11:53:14.769Z,98766.22
2022-10-11T11:54:38.088Z,98766.81
2022-10-11T11:55:59.323Z,98758.06
2022-10-11T11:57:20.261Z,98762.62
2022-10-11T11:58:48.779Z,98761.63
2022-10-11T12:00:13.450Z,98765.34
2022-10-11T12:01:38.536Z,98755.69
2022-10-11T12:02:55.399Z,98760.72
2022-10-11T12:04:05.361Z,98751.22
2022-10-11T12:05:11.610Z,98756.06
2022-10-11T12:06:14.651Z,98751.22
2022-10-11T12:07:20.889Z,98754.69
2022-10-11T12:08:31.982Z,98754.19
2022-10-11T12:09:36.923Z,98751.94
2022-10-11T12:10:55.933Z,98743.53
2022-10-11T12:12:25.739Z,98747.16
2022-10-11T12:13:36.545Z,98752.81
2022-10-11T12:14:41.232Z,98747.59
2022-10-11T12:16:00.608Z,98753.47
2022-10-11T12:17:18.277Z,98750.41
2022-10-11T12:18:21.281Z,98746.62
2022-10-11T12:19:23.887Z,98746.34
2022-10-11T12:20:31.743Z,98744.84
2022-10-11T12:21:39.882Z,98743.34
2022-10-11T12:22:51.443Z,98742.75
2022-10-11T12:23:56.221Z,98744.22
2022-10-11T12:25:05.427Z,98744.88
2022-10-11T12:26:32.221Z,98741.25
2022-10-11T12:27:47.444Z,98745.22
2022-10-11T12:28:59.179Z,98742.72
2022-10-11T12:30:01.940Z,98743.34
2022-10-11T12:31:17.319Z,98740.88
2022-10-11T12:32:29.176Z,98732.22
2022-10-11T12:33:32.801Z,98742.00
2022-10-11T12:34:44.505Z,98731.34
2022-10-11T12:35:53.029Z,98726.72
2022-10-11T12:36:55.692Z,98728.53
2022-10-11T12:38:26.439Z,98717.84
2022-10-11T12:39:29.003Z,98732.47
2022-10-11T12:40:42.536Z,98734.38
2022-10-11T12:41:48.617Z,98732.59
2022-10-11T12:43:22.825Z,98731.25
2022-10-11T12:44:27.340Z,98744.13
2022-10-11T12:45:32.525Z,98732.22
2022-10-11T12:47:18.831Z,98735.63
2022-10-11T12:48:40.045Z,98729.44
2022-10-11T12:50:14.622Z,98730.19
2022-10-11T12:51:19.805Z,98725.03
2022-10-11T12:52:49.966Z,98728.34
2022-10-11T12:54:25.470Z,98724.59
2022-10-11T12:55:49.226Z,98721.50
2022-10-11T12:57:12.379Z,98726.31
2022-10-11T12:58:25.990Z,98734.94
2022-10-11T12:59:32.657Z,98731.41
2022-10-11T13:01:03.627Z,98719.06
2022-10-11T13:02:36.222Z,98725.56
2022-10-11T13:03:57.695Z,98727.97
2022-10-11T13:05:17.366Z,98726.69
2022-10-11T13:06:48.913Z,98718.81
2022-10-11T13:07:55.755Z,98723.41
2022-10-11T13:09:23.107Z,98732.31
2022-10-11T13:10:39.356Z,98729.88
2022-10-11T13:11:56.516Z,98724.22
2022-10-11T13:13:04.429Z,98725.47
2022-10-11T13:14:11.316Z,98728.78
2022-10-11T13:15:19.258Z,98724.91
2022-10-11T13:16:29.281Z,98732.81
2022-10-11T13:17:38.673Z,98732.38
2022-10-11T13:18:44.225Z,98731.19
2022-10-11T13:19:50.786Z,98727.97
2022-10-11T13:20:53.428Z,98727.41
2022-10-11T13:22:02.924Z,98736.97
2022-10-11T13:23:26.344Z,98727.38
2022-10-11T13:24:37.169Z,98726.41
2022-10-11T13:25:39.806Z,98731.97